Terminal Aerodrome Forecast
Issued by NWS Cleveland, OH

Home | Current Version | Previous Version | Text Only | Print | Product List | Glossary Off
Versions: 1 2 3 4 5 6 7 8 9 10 11 12 13 14 15

000
FTUS41 KCLE 051132
TAFMFD
TAF
KMFD 051132Z 0512/0612 VRB02KT 4SM BR BKN250
      TEMPO 0512/0514 6SM HZ
     FM051400 09005KT P6SM BKN250
     FM060600 12002KT 3SM BR SCT250=

USA.gov is the U.S. government's official web portal to all federal, state and local government web resources and services.